createdAt,value
2023-01-25T00:01:14.891Z,8.39
2023-01-25T00:06:14.836Z,8.69
2023-01-25T00:11:14.763Z,7.80
2023-01-25T00:16:14.808Z,8.60
2023-01-25T00:21:14.641Z,8.60
2023-01-25T00:26:14.589Z,7.09
2023-01-25T00:31:14.638Z,8.39
2023-01-25T00:36:14.458Z,8.89
2023-01-25T00:41:14.386Z,8.19
2023-01-25T00:46:14.403Z,8.19
2023-01-25T00:51:14.255Z,8.69
2023-01-25T00:56:14.200Z,9.10
2023-01-25T01:01:14.206Z,9.00
2023-01-25T01:06:14.072Z,8.30
2023-01-25T01:11:13.999Z,8.89
2023-01-25T01:16:14.022Z,8.60
2023-01-25T01:21:13.892Z,8.60
2023-01-25T01:26:13.844Z,9.69
2023-01-25T01:31:13.756Z,8.10
2023-01-25T01:36:13.687Z,8.69
2023-01-25T01:41:13.616Z,9.50
2023-01-25T01:46:13.629Z,9.39
2023-01-25T01:51:13.519Z,9.80
2023-01-25T01:56:13.454Z,9.69
2023-01-25T02:01:13.446Z,9.00
2023-01-25T02:06:13.441Z,7.90
2023-01-25T02:11:13.223Z,8.69
2023-01-25T02:16:13.245Z,9.50
2023-01-25T02:21:13.103Z,9.00
2023-01-25T02:26:13.036Z,9.30
2023-01-25T02:31:13.124Z,9.69
2023-01-25T02:36:12.908Z,9.89
2023-01-25T02:41:12.855Z,9.69
2023-01-25T02:46:12.852Z,9.19
2023-01-25T02:51:12.731Z,10.00
2023-01-25T02:56:12.655Z,10.50
2023-01-25T03:01:12.639Z,10.50
2023-01-25T03:06:12.523Z,9.19
2023-01-25T03:11:12.454Z,9.19
2023-01-25T03:16:12.438Z,9.39
2023-01-25T03:21:12.321Z,10.69
2023-01-25T03:26:12.268Z,10.10
2023-01-25T03:31:12.258Z,9.10
2023-01-25T03:36:12.234Z,9.00
2023-01-25T03:41:12.068Z,7.00
2023-01-25T03:46:12.016Z,8.60
2023-01-25T03:51:11.958Z,8.50
2023-01-25T03:56:11.936Z,8.60
2023-01-25T04:01:11.877Z,8.30
2023-01-25T04:06:11.767Z,9.10
2023-01-25T04:11:11.695Z,8.19
2023-01-25T04:16:11.769Z,8.10
2023-01-25T04:21:11.577Z,8.60
2023-01-25T04:26:11.500Z,8.00
2023-01-25T04:31:11.428Z,7.50
2023-01-25T04:36:11.375Z,7.90
2023-01-25T04:41:11.316Z,8.00
2023-01-25T04:46:11.322Z,8.80
2023-01-25T04:51:11.183Z,8.10
2023-01-25T04:56:11.120Z,7.80
2023-01-25T05:01:11.089Z,8.10
2023-01-25T05:06:10.995Z,7.30
2023-01-25T05:11:10.922Z,8.30
2023-01-25T05:16:10.892Z,8.50
2023-01-25T05:21:10.795Z,8.50
2023-01-25T05:26:10.749Z,9.19
2023-01-25T05:31:10.779Z,9.10
2023-01-25T05:36:10.609Z,7.59
2023-01-25T05:41:10.539Z,7.30
2023-01-25T05:46:10.518Z,7.90
2023-01-25T05:51:10.409Z,7.19
2023-01-25T05:56:10.384Z,8.30
2023-01-25T06:01:10.284Z,8.10
2023-01-25T06:06:10.227Z,13.19
2023-01-25T06:11:10.156Z,7.69
2023-01-25T06:16:10.202Z,7.59
2023-01-25T06:21:10.024Z,7.69
2023-01-25T06:26:09.973Z,7.59
2023-01-25T06:31:09.976Z,7.59
2023-01-25T06:36:09.852Z,7.50
2023-01-25T06:41:11.145Z,7.40
2023-01-25T06:46:09.767Z,7.69
2023-01-25T06:51:09.643Z,7.50
2023-01-25T06:56:11.619Z,7.90
2023-01-25T07:01:09.516Z,8.00
2023-01-25T07:06:09.460Z,8.10
2023-01-25T07:11:09.417Z,7.30
2023-01-25T07:16:09.329Z,8.00
2023-01-25T07:21:09.258Z,7.19
2023-01-25T07:26:09.202Z,8.80
2023-01-25T07:31:09.152Z,8.39
2023-01-25T07:36:09.072Z,7.40
2023-01-25T07:41:09.004Z,6.50
2023-01-25T07:46:08.954Z,6.90
2023-01-25T07:51:08.874Z,7.59
2023-01-25T07:56:08.819Z,7.50
2023-01-25T08:01:08.753Z,7.00
2023-01-25T08:06:08.690Z,8.10
2023-01-25T08:11:08.627Z,6.90
2023-01-25T08:16:08.560Z,6.50
2023-01-25T08:21:08.488Z,6.90
2023-01-25T08:26:08.445Z,6.40
2023-01-25T08:31:08.365Z,6.40
2023-01-25T08:36:08.305Z,6.50
2023-01-25T08:41:08.239Z,7.30
2023-01-25T08:46:08.179Z,7.19
2023-01-25T08:51:08.119Z,8.10
2023-01-25T08:56:08.071Z,9.10
2023-01-25T09:01:07.982Z,9.39
2023-01-25T09:06:07.952Z,7.59
2023-01-25T09:11:07.856Z,7.19
2023-01-25T09:16:07.798Z,7.50
2023-01-25T09:21:07.734Z,7.40
2023-01-25T09:26:07.670Z,7.19
2023-01-25T09:31:20.913Z,7.90
2023-01-25T09:36:08.573Z,6.59
2023-01-25T09:41:07.474Z,6.59
2023-01-25T09:46:07.563Z,6.90
2023-01-25T09:51:07.340Z,8.80
2023-01-25T09:56:07.285Z,7.50
2023-01-25T10:01:13.892Z,7.90
2023-01-25T10:06:07.159Z,9.39
2023-01-25T10:11:07.086Z,9.30
2023-01-25T10:16:12.131Z,8.80
2023-01-25T10:21:06.957Z,8.10
2023-01-25T10:26:06.902Z,8.60
2023-01-25T10:31:06.974Z,7.59
2023-01-25T10:36:06.795Z,8.10
2023-01-25T10:41:06.702Z,7.09
2023-01-25T10:46:06.653Z,6.80
2023-01-25T10:51:06.579Z,7.59
2023-01-25T10:56:06.532Z,7.30
2023-01-25T11:01:06.452Z,7.30
2023-01-25T11:06:06.425Z,7.40
2023-01-25T11:11:06.490Z,7.40
2023-01-25T11:16:06.337Z,6.80
2023-01-25T11:21:06.206Z,6.80
2023-01-25T11:26:06.146Z,6.59
2023-01-25T11:31:06.149Z,6.80
2023-01-25T11:36:06.037Z,6.69
2023-01-25T11:41:05.954Z,8.00
2023-01-25T11:46:06.037Z,7.09
2023-01-25T11:51:05.822Z,7.50
2023-01-25T11:56:05.768Z,6.00
2023-01-25T12:01:05.698Z,7.09
2023-01-25T12:06:05.647Z,10.60
2023-01-25T12:11:05.579Z,8.69
2023-01-25T12:16:05.539Z,6.40
2023-01-25T12:21:08.112Z,7.50
2023-01-25T12:26:05.395Z,7.19
2023-01-25T12:31:05.445Z,7.19
2023-01-25T12:36:05.266Z,5.09
2023-01-25T12:41:05.189Z,5.50
2023-01-25T12:46:05.148Z,6.19
2023-01-25T12:51:05.065Z,5.59
2023-01-25T12:56:05.035Z,6.30
2023-01-25T13:01:04.996Z,5.59
2023-01-25T13:06:04.879Z,5.50
2023-01-25T13:11:04.814Z,5.80
2023-01-25T13:16:04.797Z,4.90
2023-01-25T13:21:04.688Z,5.30
2023-01-25T13:26:04.617Z,4.69
2023-01-25T13:31:04.668Z,5.59
2023-01-25T13:36:04.488Z,5.50
2023-01-25T13:41:04.446Z,6.50
2023-01-25T13:46:04.460Z,6.40
2023-01-25T13:51:04.304Z,6.40
2023-01-25T13:56:04.236Z,6.69
2023-01-25T14:01:04.432Z,11.50
2023-01-25T14:06:04.110Z,7.30
2023-01-25T14:11:04.055Z,6.90
2023-01-25T14:16:03.998Z,8.30
2023-01-25T14:21:05.150Z,7.90
2023-01-25T14:26:03.851Z,8.89
2023-01-25T14:31:03.808Z,7.69
2023-01-25T14:36:16.103Z,8.00
2023-01-25T14:41:04.691Z,7.80
2023-01-25T14:46:03.722Z,8.30
2023-01-25T14:51:03.541Z,8.10
2023-01-25T14:56:03.473Z,7.40
2023-01-25T15:01:03.485Z,7.09
2023-01-25T15:06:03.346Z,7.50
2023-01-25T15:11:03.332Z,7.40
2023-01-25T15:16:03.210Z,7.59
2023-01-25T15:21:03.153Z,7.59
2023-01-25T15:26:03.087Z,8.19
2023-01-25T15:31:03.117Z,7.90
2023-01-25T15:36:02.957Z,7.40
2023-01-25T15:41:02.912Z,8.19
2023-01-25T15:46:02.929Z,7.69
2023-01-25T15:51:02.777Z,8.39
2023-01-25T15:56:02.711Z,7.30
2023-01-25T16:01:02.668Z,7.00
2023-01-25T16:06:02.577Z,8.00
2023-01-25T16:11:02.521Z,7.69
2023-01-25T16:16:02.451Z,8.00
2023-01-25T16:21:02.394Z,8.10
2023-01-25T16:26:02.322Z,8.60
2023-01-25T16:31:02.385Z,8.00
2023-01-25T16:36:02.195Z,8.69
2023-01-25T16:41:02.142Z,9.10
2023-01-25T16:46:02.124Z,10.39
2023-01-25T16:51:02.012Z,9.10
2023-01-25T16:56:01.948Z,9.30
2023-01-25T17:01:01.929Z,9.10
2023-01-25T17:06:01.835Z,8.69
2023-01-25T17:11:01.757Z,9.10
2023-01-25T17:16:01.766Z,9.80
2023-01-25T17:21:01.637Z,11.00
2023-01-25T17:26:01.564Z,9.69
2023-01-25T17:31:01.633Z,9.10
2023-01-25T17:36:01.444Z,9.60
2023-01-25T17:41:01.376Z,8.69
2023-01-25T17:46:01.332Z,8.89
2023-01-25T17:51:01.249Z,8.30
2023-01-25T17:56:01.175Z,7.80
2023-01-25T18:01:13.073Z,9.89
2023-01-25T18:06:02.080Z,8.89
2023-01-25T18:11:01.005Z,9.60
2023-01-25T18:16:00.940Z,9.50
2023-01-25T18:21:00.865Z,8.10
2023-01-25T18:26:00.800Z,7.50
2023-01-25T18:31:00.870Z,7.30
2023-01-25T18:36:02.732Z,8.19
2023-01-25T18:41:00.618Z,8.60
2023-01-25T18:46:00.541Z,7.40
2023-01-25T18:51:00.479Z,7.09
2023-01-25T18:56:00.409Z,7.90
2023-01-25T19:01:00.350Z,8.10
2023-01-25T19:06:00.277Z,7.80
2023-01-25T19:11:00.221Z,7.90
2023-01-25T19:16:00.259Z,7.40
2023-01-25T19:21:00.107Z,8.30
2023-01-25T19:26:00.031Z,8.19
2023-01-25T19:31:00.105Z,8.89
2023-01-25T19:35:59.892Z,9.30
2023-01-25T19:40:59.839Z,9.50
2023-01-25T19:45:59.767Z,18.89
2023-01-25T19:50:59.711Z,12.69
2023-01-25T19:55:59.638Z,10.00
2023-01-25T20:00:59.580Z,10.80
2023-01-25T20:05:59.509Z,10.10
2023-01-25T20:10:59.454Z,10.30
2023-01-25T20:15:59.414Z,10.30
2023-01-25T20:20:59.327Z,9.00
2023-01-25T20:25:59.253Z,8.89
2023-01-25T20:30:59.350Z,8.80
2023-01-25T20:35:59.142Z,12.60
2023-01-25T20:40:59.070Z,9.39
2023-01-25T20:45:58.998Z,8.69
2023-01-25T20:50:58.942Z,8.80
2023-01-25T20:55:58.872Z,9.00
2023-01-25T21:00:58.850Z,9.00
2023-01-25T21:05:58.806Z,9.10
2023-01-25T21:10:58.692Z,8.69
2023-01-25T21:15:58.643Z,9.10
2023-01-25T21:20:58.555Z,9.10
2023-01-25T21:25:58.493Z,9.39
2023-01-25T21:30:58.492Z,9.80
2023-01-25T21:35:58.362Z,10.19
2023-01-25T21:40:58.298Z,9.80
2023-01-25T21:45:58.298Z,10.69
2023-01-25T21:50:58.169Z,8.60
2023-01-25T21:55:58.100Z,9.60
2023-01-25T22:00:58.119Z,9.19
2023-01-25T22:05:57.982Z,9.10
2023-01-25T22:10:57.919Z,8.69
2023-01-25T22:15:57.871Z,7.90
2023-01-25T22:20:57.786Z,7.90
2023-01-25T22:25:57.715Z,9.89
2023-01-25T22:30:57.799Z,11.10
2023-01-25T22:35:57.591Z,10.89
2023-01-25T22:40:57.530Z,10.10
2023-01-25T22:45:57.528Z,10.60
2023-01-25T22:50:57.403Z,10.19
2023-01-25T22:55:57.333Z,10.80
2023-01-25T23:00:57.277Z,10.60
2023-01-25T23:05:57.203Z,9.19
2023-01-25T23:10:57.146Z,10.69
2023-01-25T23:15:57.091Z,9.19
2023-01-25T23:20:57.045Z,9.00
2023-01-25T23:25:56.945Z,10.60
2023-01-25T23:30:57.019Z,10.19
2023-01-25T23:35:56.819Z,10.10
2023-01-25T23:40:56.762Z,9.39
2023-01-25T23:45:56.708Z,8.89
2023-01-25T23:50:56.636Z,8.60
2023-01-25T23:55:56.563Z,10.00
